createdAt,value
2019-01-23T00:00:53.504Z,89.04
2019-01-23T00:01:53.510Z,89.35
2019-01-23T00:02:53.484Z,89.35
2019-01-23T00:03:53.468Z,88.62
2019-01-23T00:04:53.476Z,89.29
2019-01-23T00:05:53.456Z,89.25
2019-01-23T00:06:53.464Z,89.77
2019-01-23T00:07:53.432Z,89.07
2019-01-23T00:08:53.421Z,89.39
2019-01-23T00:09:53.411Z,88.97
2019-01-23T00:10:53.399Z,89.35
2019-01-23T00:11:53.408Z,89.14
2019-01-23T00:12:53.385Z,89.07
2019-01-23T00:13:53.373Z,88.51
2019-01-23T00:14:53.358Z,89.07
2019-01-23T00:15:53.345Z,88.93
2019-01-23T00:16:53.359Z,89.04
2019-01-23T00:17:53.328Z,89.14
2019-01-23T00:18:53.327Z,89.25
2019-01-23T00:19:53.304Z,89.77
2019-01-23T00:21:00.837Z,89.98
2019-01-23T00:21:53.296Z,89.98
2019-01-23T00:22:53.328Z,89.56
2019-01-23T00:23:53.261Z,88.62
2019-01-23T00:24:53.257Z,88.97
2019-01-23T00:25:53.252Z,88.82
2019-01-23T00:26:53.233Z,89.29
2019-01-23T00:27:53.221Z,89.14
2019-01-23T00:28:53.233Z,89.35
2019-01-23T00:29:53.200Z,89.87
2019-01-23T00:30:53.197Z,89.14
2019-01-23T00:31:53.179Z,89.14
2019-01-23T00:32:53.170Z,88.82
2019-01-23T00:33:53.179Z,88.82
2019-01-23T00:34:53.148Z,89.56
2019-01-23T00:35:53.142Z,88.97
2019-01-23T00:36:53.131Z,89.25
2019-01-23T00:37:53.131Z,89.14
2019-01-23T00:38:53.147Z,89.46
2019-01-23T00:39:53.097Z,89.18
2019-01-23T00:40:53.102Z,89.56
2019-01-23T00:41:53.074Z,88.97
2019-01-23T00:42:53.067Z,88.72
2019-01-23T00:43:53.066Z,89.04
2019-01-23T00:44:53.072Z,88.72
2019-01-23T00:45:53.033Z,88.82
2019-01-23T00:46:53.023Z,88.72
2019-01-23T00:47:53.009Z,88.30
2019-01-23T00:48:53.055Z,87.88
2019-01-23T00:49:52.996Z,88.02
2019-01-23T00:50:52.989Z,88.20
2019-01-23T00:51:52.974Z,88.30
2019-01-23T00:52:52.966Z,87.77
2019-01-23T00:53:52.995Z,87.99
2019-01-23T00:54:52.965Z,87.46
2019-01-23T00:55:52.959Z,87.25
2019-01-23T00:56:52.922Z,87.15
2019-01-23T00:57:52.914Z,87.46
2019-01-23T00:58:52.904Z,87.25
2019-01-23T00:59:52.917Z,87.04
2019-01-23T01:00:52.885Z,87.15
2019-01-23T01:02:01.428Z,87.04
2019-01-23T01:03:01.405Z,87.36
2019-01-23T01:04:02.770Z,86.94
2019-01-23T01:05:00.419Z,87.25
2019-01-23T01:06:01.639Z,87.15
2019-01-23T01:06:52.815Z,86.72
2019-01-23T01:07:52.809Z,86.52
2019-01-23T01:08:52.817Z,86.20
2019-01-23T01:09:52.783Z,86.20
2019-01-23T01:10:52.778Z,85.99
2019-01-23T01:11:52.809Z,86.62
2019-01-23T01:12:52.758Z,85.68
2019-01-23T01:13:52.752Z,86.20
2019-01-23T01:14:52.754Z,85.78
2019-01-23T01:15:52.720Z,86.20
2019-01-23T01:16:52.773Z,86.20
2019-01-23T01:17:52.695Z,85.99
2019-01-23T01:18:52.692Z,85.78
2019-01-23T01:19:52.702Z,85.25
2019-01-23T01:20:52.668Z,85.15
2019-01-23T01:21:52.661Z,85.25
2019-01-23T01:22:52.665Z,85.47
2019-01-23T01:24:01.405Z,85.36
2019-01-23T01:24:52.627Z,84.73
2019-01-23T01:25:52.632Z,85.36
2019-01-23T01:26:52.605Z,84.94
2019-01-23T01:27:52.632Z,85.25
2019-01-23T01:28:56.070Z,84.94
2019-01-23T01:29:52.571Z,85.15
2019-01-23T01:30:52.610Z,84.80
2019-01-23T01:32:00.099Z,84.84
2019-01-23T01:32:52.545Z,84.94
2019-01-23T01:33:52.533Z,84.94
2019-01-23T01:34:52.598Z,85.11
2019-01-23T01:35:52.542Z,84.80
2019-01-23T01:36:52.502Z,85.01
2019-01-23T01:37:52.492Z,84.38
2019-01-23T01:38:52.523Z,84.63
2019-01-23T01:39:52.493Z,84.80
2019-01-23T01:40:52.469Z,85.25
2019-01-23T01:41:52.468Z,84.52
2019-01-23T01:42:52.441Z,84.91
2019-01-23T01:43:52.485Z,84.48
2019-01-23T01:44:52.457Z,84.59
2019-01-23T01:45:52.405Z,84.59
2019-01-23T01:46:52.407Z,84.48
2019-01-23T01:47:52.408Z,84.94
2019-01-23T01:48:52.378Z,84.48
2019-01-23T01:49:52.410Z,84.59
2019-01-23T01:50:52.376Z,84.10
2019-01-23T01:51:52.340Z,84.69
2019-01-23T01:52:52.348Z,84.27
2019-01-23T01:53:52.342Z,84.48
2019-01-23T01:54:52.309Z,84.59
2019-01-23T01:55:52.323Z,83.96
2019-01-23T01:56:52.286Z,83.75
2019-01-23T01:57:52.295Z,83.75
2019-01-23T01:58:52.277Z,83.86
2019-01-23T01:59:52.259Z,83.86
2019-01-23T02:00:52.281Z,83.64
2019-01-23T02:01:52.234Z,83.75
2019-01-23T02:02:52.228Z,84.06
2019-01-23T02:03:52.261Z,83.64
2019-01-23T02:04:52.206Z,83.54
2019-01-23T02:05:52.234Z,83.54
2019-01-23T02:06:52.183Z,83.64
2019-01-23T02:07:52.178Z,83.68
2019-01-23T02:08:52.164Z,83.58
2019-01-23T02:09:52.164Z,83.96
2019-01-23T02:10:52.144Z,83.79
2019-01-23T02:11:52.154Z,83.33
2019-01-23T02:12:52.135Z,83.05
2019-01-23T02:13:52.114Z,83.75
2019-01-23T02:14:52.097Z,83.64
2019-01-23T02:15:52.092Z,83.64
2019-01-23T02:16:52.102Z,83.54
2019-01-23T02:17:52.070Z,83.54
2019-01-23T02:18:52.066Z,83.44
2019-01-23T02:19:52.052Z,83.22
2019-01-23T02:20:52.039Z,83.86
2019-01-23T02:21:52.044Z,83.22
2019-01-23T02:22:52.015Z,82.81
2019-01-23T02:23:52.018Z,83.01
2019-01-23T02:24:51.998Z,83.12
2019-01-23T02:25:51.999Z,83.12
2019-01-23T02:26:52.002Z,83.44
2019-01-23T02:27:51.970Z,83.33
2019-01-23T02:28:51.965Z,82.95
2019-01-23T02:29:51.972Z,83.01
2019-01-23T02:30:51.965Z,83.01
2019-01-23T02:31:51.941Z,83.12
2019-01-23T02:32:51.922Z,82.91
2019-01-23T02:33:51.912Z,82.59
2019-01-23T02:34:51.894Z,82.91
2019-01-23T02:35:51.898Z,82.70
2019-01-23T02:36:51.897Z,82.81
2019-01-23T02:37:51.862Z,82.28
2019-01-23T02:38:51.852Z,82.70
2019-01-23T02:39:51.838Z,82.28
2019-01-23T02:40:51.830Z,82.39
2019-01-23T02:41:51.861Z,82.07
2019-01-23T02:42:51.816Z,82.07
2019-01-23T02:43:51.795Z,82.07
2019-01-23T02:44:51.784Z,82.28
2019-01-23T02:45:51.781Z,82.49
2019-01-23T02:46:51.781Z,81.96
2019-01-23T02:47:51.777Z,81.65
2019-01-23T02:48:51.746Z,81.76
2019-01-23T02:49:51.737Z,81.76
2019-01-23T02:50:51.725Z,81.86
2019-01-23T02:51:51.711Z,81.86
2019-01-23T02:52:51.722Z,82.07
2019-01-23T02:53:51.705Z,81.96
2019-01-23T02:54:51.682Z,81.96
2019-01-23T02:55:51.670Z,81.65
2019-01-23T02:56:51.662Z,81.34
2019-01-23T02:57:51.678Z,81.51
2019-01-23T02:58:51.650Z,81.34
2019-01-23T02:59:51.649Z,81.44
2019-01-23T03:00:51.625Z,81.34
2019-01-23T03:01:51.611Z,81.44
2019-01-23T03:02:51.624Z,81.54
2019-01-23T03:03:51.589Z,81.02
2019-01-23T03:04:51.582Z,81.02
2019-01-23T03:05:51.573Z,81.44
2019-01-23T03:06:51.559Z,81.23
2019-01-23T03:07:51.547Z,81.54
2019-01-23T03:08:51.553Z,81.40
2019-01-23T03:09:51.525Z,81.40
2019-01-23T03:10:51.514Z,81.44
2019-01-23T03:11:51.501Z,81.34
2019-01-23T03:12:51.511Z,81.23
2019-01-23T03:13:51.504Z,81.23
2019-01-23T03:14:51.472Z,81.30
2019-01-23T03:15:51.464Z,80.98
2019-01-23T03:16:51.473Z,80.67
2019-01-23T03:17:51.454Z,80.67
2019-01-23T03:18:51.488Z,80.91
2019-01-23T03:19:51.423Z,80.67
2019-01-23T03:20:51.428Z,81.09
2019-01-23T03:21:51.402Z,80.49
2019-01-23T03:22:51.388Z,81.09
2019-01-23T03:23:51.408Z,81.20
2019-01-23T03:24:51.372Z,80.67
2019-01-23T03:25:51.359Z,80.77
2019-01-23T03:26:51.347Z,81.09
2019-01-23T03:27:51.344Z,80.67
2019-01-23T03:28:51.333Z,80.88
2019-01-23T03:30:00.962Z,81.09
2019-01-23T03:30:51.300Z,80.88
2019-01-23T03:31:51.290Z,81.23
2019-01-23T03:32:51.298Z,80.46
2019-01-23T03:33:51.269Z,80.77
2019-01-23T03:34:51.314Z,81.20
2019-01-23T03:35:51.249Z,80.81
2019-01-23T03:36:51.240Z,80.18
2019-01-23T03:37:51.229Z,80.67
2019-01-23T03:38:51.236Z,80.29
2019-01-23T03:39:51.225Z,80.46
2019-01-23T03:40:51.226Z,80.15
2019-01-23T03:41:51.189Z,80.60
2019-01-23T03:42:51.177Z,81.23
2019-01-23T03:43:51.167Z,80.35
2019-01-23T03:44:51.157Z,80.35
2019-01-23T03:45:51.159Z,80.49
2019-01-23T03:46:51.157Z,79.72
2019-01-23T03:47:51.126Z,79.76
2019-01-23T03:48:51.116Z,80.29
2019-01-23T03:49:51.100Z,80.25
2019-01-23T03:50:51.124Z,79.62
2019-01-23T03:51:51.094Z,79.62
2019-01-23T03:52:51.077Z,79.72
2019-01-23T03:53:51.068Z,80.46
2019-01-23T03:54:51.055Z,80.46
2019-01-23T03:55:51.077Z,80.15
2019-01-23T03:56:51.027Z,80.29
2019-01-23T03:57:51.024Z,80.46
2019-01-23T03:58:51.010Z,80.04
2019-01-23T03:59:51.018Z,80.25
2019-01-23T04:00:51.004Z,79.72
2019-01-23T04:01:50.985Z,79.62
2019-01-23T04:02:51.032Z,79.52
2019-01-23T04:03:50.968Z,79.41
2019-01-23T04:04:50.942Z,79.72
2019-01-23T04:05:50.982Z,79.30
2019-01-23T04:06:50.925Z,79.83
2019-01-23T04:07:50.912Z,79.62
2019-01-23T04:08:50.908Z,79.62
2019-01-23T04:09:50.927Z,79.66
2019-01-23T04:10:50.893Z,80.25
2019-01-23T04:11:50.934Z,80.77
2019-01-23T04:12:50.949Z,80.29
2019-01-23T04:13:50.856Z,80.46
2019-01-23T04:14:50.855Z,79.72
2019-01-23T04:15:50.881Z,80.04
2019-01-23T04:16:50.855Z,80.67
2019-01-23T04:17:50.815Z,80.04
2019-01-23T04:18:50.853Z,80.88
2019-01-23T04:19:50.875Z,80.46
2019-01-23T04:20:50.815Z,80.29
2019-01-23T04:21:50.807Z,80.15
2019-01-23T04:22:50.771Z,80.98
2019-01-23T04:23:50.767Z,80.46
2019-01-23T04:24:50.776Z,79.93
2019-01-23T04:25:50.733Z,79.76
2019-01-23T04:28:06.914Z,79.72
2019-01-23T04:29:06.877Z,80.77
2019-01-23T04:30:06.875Z,80.67
2019-01-23T04:31:06.858Z,80.46
2019-01-23T04:32:06.856Z,80.25
2019-01-23T04:33:06.852Z,79.52
2019-01-23T04:34:06.822Z,79.41
2019-01-23T04:35:06.821Z,79.41
2019-01-23T04:37:47.187Z,79.62
2019-01-23T04:38:47.134Z,79.62
2019-01-23T04:39:47.130Z,79.72
2019-01-23T04:40:47.126Z,79.41
2019-01-23T04:41:47.111Z,79.62
2019-01-23T04:42:47.162Z,79.34
2019-01-23T04:43:47.112Z,79.30
2019-01-23T04:46:18.298Z,79.52
2019-01-23T04:48:27.530Z,79.52
2019-01-23T04:49:35.042Z,79.72
2019-01-23T04:50:27.524Z,79.97
2019-01-23T04:51:27.483Z,79.72
2019-01-23T04:53:38.864Z,79.52
2019-01-23T04:54:38.721Z,79.76
2019-01-23T04:55:38.703Z,80.46
2019-01-23T04:56:38.690Z,79.55
2019-01-23T04:57:38.698Z,80.88
2019-01-23T04:58:38.686Z,80.91
2019-01-23T04:59:38.698Z,79.83
2019-01-23T05:00:38.644Z,79.97
2019-01-23T05:01:47.182Z,79.55
2019-01-23T05:02:38.643Z,79.52
2019-01-23T05:03:38.627Z,79.76
2019-01-23T05:04:38.597Z,80.15
2019-01-23T05:05:38.583Z,79.83
2019-01-23T05:06:38.572Z,79.93
2019-01-23T05:07:38.565Z,80.25
2019-01-23T05:08:38.582Z,80.15
2019-01-23T05:09:38.541Z,79.83
2019-01-23T05:10:38.533Z,79.62
2019-01-23T05:11:38.528Z,79.72
2019-01-23T05:12:38.513Z,79.62
2019-01-23T05:13:38.519Z,79.62
2019-01-23T05:14:38.499Z,79.83
2019-01-23T05:15:38.476Z,80.04
2019-01-23T05:16:38.465Z,80.49
2019-01-23T05:17:38.473Z,80.25
2019-01-23T05:18:38.446Z,80.77
2019-01-23T05:19:38.458Z,80.46
2019-01-23T05:20:38.428Z,79.62
2019-01-23T05:21:38.411Z,80.46
2019-01-23T05:22:38.410Z,79.66
2019-01-23T05:23:38.426Z,80.04
2019-01-23T05:24:38.385Z,80.15
2019-01-23T05:25:38.404Z,80.25
2019-01-23T05:26:46.690Z,80.25
2019-01-23T05:27:38.431Z,80.49
2019-01-23T05:28:38.359Z,80.67
2019-01-23T05:29:38.326Z,79.93
2019-01-23T05:30:38.325Z,80.77
2019-01-23T05:31:38.303Z,80.35
2019-01-23T05:32:38.300Z,80.29
2019-01-23T05:33:38.347Z,80.35
2019-01-23T05:34:38.287Z,80.18
2019-01-23T05:35:38.269Z,80.15
2019-01-23T05:36:38.262Z,80.35
2019-01-23T05:37:38.246Z,80.08
2019-01-23T05:38:38.239Z,80.08
2019-01-23T05:39:38.265Z,80.77
2019-01-23T05:40:38.223Z,80.57
2019-01-23T05:41:38.202Z,80.67
2019-01-23T05:42:38.204Z,80.15
2019-01-23T05:43:38.183Z,80.57
2019-01-23T05:44:38.201Z,80.08
2019-01-23T05:45:38.160Z,80.46
2019-01-23T05:46:38.151Z,80.04
2019-01-23T05:47:38.147Z,80.25
2019-01-23T05:48:38.135Z,80.77
2019-01-23T05:49:38.165Z,80.46
2019-01-23T05:50:38.110Z,80.15
2019-01-23T05:51:38.105Z,79.93
2019-01-23T05:52:38.090Z,80.35
2019-01-23T05:53:45.652Z,80.46
2019-01-23T05:54:38.071Z,80.15
2019-01-23T05:55:38.075Z,79.83
2019-01-23T05:56:38.079Z,79.72
2019-01-23T05:57:46.587Z,79.30
2019-01-23T05:58:38.023Z,79.10
2019-01-23T05:59:38.016Z,79.41
2019-01-23T06:00:38.059Z,79.30
2019-01-23T06:01:37.991Z,79.62
2019-01-23T06:02:38.036Z,78.99
2019-01-23T06:03:38.056Z,79.30
2019-01-23T06:04:37.967Z,79.62
2019-01-23T06:05:37.973Z,79.62
2019-01-23T06:06:37.955Z,79.76
2019-01-23T06:07:37.928Z,79.41
2019-01-23T06:08:37.927Z,79.52
2019-01-23T06:09:37.917Z,80.15
2019-01-23T06:10:37.973Z,78.99
2019-01-23T06:11:37.893Z,79.20
2019-01-23T06:12:37.913Z,78.89
2019-01-23T06:13:37.893Z,78.89
2019-01-23T06:14:37.859Z,78.89
2019-01-23T06:15:37.886Z,79.66
2019-01-23T06:16:37.878Z,79.20
2019-01-23T06:17:37.825Z,78.89
2019-01-23T06:18:37.881Z,78.67
2019-01-23T06:19:37.806Z,78.57
2019-01-23T06:20:37.814Z,78.71
2019-01-23T06:21:37.863Z,78.89
2019-01-23T06:22:37.770Z,79.13
2019-01-23T06:23:37.768Z,78.89
2019-01-23T06:24:37.753Z,78.89
2019-01-23T06:25:37.811Z,79.10
2019-01-23T06:27:47.957Z,79.30
2019-01-23T06:28:47.944Z,79.20
2019-01-23T06:29:47.941Z,78.89
2019-01-23T06:30:56.034Z,78.78
2019-01-23T06:31:57.769Z,79.10
2019-01-23T06:32:47.922Z,79.10
2019-01-23T06:33:55.490Z,78.99
2019-01-23T06:34:47.914Z,78.99
2019-01-23T06:35:47.873Z,78.89
2019-01-23T06:36:47.887Z,79.30
2019-01-23T06:37:47.851Z,79.62
2019-01-23T06:38:47.869Z,79.30
2019-01-23T06:39:47.876Z,78.89
2019-01-23T06:40:47.819Z,79.20
2019-01-23T06:41:47.850Z,79.83
2019-01-23T06:42:47.796Z,78.89
2019-01-23T06:43:47.789Z,78.57
2019-01-23T06:44:47.789Z,78.78
2019-01-23T06:45:47.766Z,78.96
2019-01-23T06:46:47.996Z,78.78
2019-01-23T06:47:47.780Z,78.57
2019-01-23T06:48:47.754Z,78.57
2019-01-23T06:49:47.726Z,78.78
2019-01-23T06:50:47.744Z,78.89
2019-01-23T06:51:47.704Z,78.99
2019-01-23T06:52:47.717Z,78.96
2019-01-23T06:53:47.797Z,78.47
2019-01-23T06:54:47.678Z,78.47
2019-01-23T06:55:47.663Z,78.67
2019-01-23T06:56:47.662Z,78.47
2019-01-23T06:57:47.674Z,78.67
2019-01-23T06:58:47.634Z,78.89
2019-01-23T06:59:47.622Z,78.57
2019-01-23T07:00:47.636Z,78.53
2019-01-23T07:01:47.603Z,78.47
2019-01-23T07:02:47.610Z,78.74
2019-01-23T07:03:47.619Z,78.89
2019-01-23T07:04:47.567Z,78.74
2019-01-23T07:05:47.557Z,78.01
2019-01-23T07:06:47.553Z,77.70
2019-01-23T07:07:47.627Z,78.36
2019-01-23T07:08:47.528Z,77.94
2019-01-23T07:09:47.555Z,78.25
2019-01-23T07:10:47.505Z,77.91
2019-01-23T07:11:47.501Z,77.52
2019-01-23T07:12:47.482Z,77.91
2019-01-23T07:13:47.497Z,78.78
2019-01-23T07:14:47.462Z,78.43
2019-01-23T07:15:47.469Z,78.96
2019-01-23T07:16:47.443Z,78.74
2019-01-23T07:17:47.433Z,78.53
2019-01-23T07:18:47.451Z,78.74
2019-01-23T07:19:47.411Z,78.96
2019-01-23T07:20:47.400Z,78.74
2019-01-23T07:21:54.953Z,78.85
2019-01-23T07:22:54.920Z,78.33
2019-01-23T07:23:57.432Z,78.85
2019-01-23T07:24:54.915Z,78.85
2019-01-23T07:25:54.893Z,78.96
2019-01-23T07:26:55.894Z,78.22
2019-01-23T07:27:54.870Z,78.53
2019-01-23T07:28:56.078Z,78.53
2019-01-23T07:29:54.851Z,78.96
2019-01-23T07:30:54.856Z,79.16
2019-01-23T07:31:54.833Z,78.74
2019-01-23T07:32:55.832Z,78.74
2019-01-23T07:33:57.277Z,79.06
2019-01-23T07:34:47.279Z,78.74
2019-01-23T07:35:47.245Z,78.64
2019-01-23T07:36:47.233Z,78.96
2019-01-23T07:37:47.233Z,78.53
2019-01-23T07:38:47.241Z,78.43
2019-01-23T07:39:47.240Z,78.74
2019-01-23T07:40:47.197Z,78.53
2019-01-23T07:41:47.183Z,78.78
2019-01-23T07:42:47.237Z,78.74
2019-01-23T07:43:55.806Z,78.89
2019-01-23T07:44:47.153Z,79.16
2019-01-23T07:45:47.137Z,78.78
2019-01-23T07:46:47.129Z,78.47
2019-01-23T07:47:47.118Z,78.78
2019-01-23T07:48:47.115Z,78.57
2019-01-23T07:49:47.122Z,78.74
2019-01-23T07:50:47.096Z,78.78
2019-01-23T07:51:47.078Z,78.57
2019-01-23T07:52:47.066Z,78.67
2019-01-23T07:53:47.064Z,78.99
2019-01-23T07:54:47.070Z,79.20
2019-01-23T07:55:47.042Z,79.30
2019-01-23T07:56:47.029Z,78.99
2019-01-23T07:57:47.011Z,78.89
2019-01-23T07:58:47.001Z,78.78
2019-01-23T07:59:47.002Z,78.81
2019-01-23T08:00:47.003Z,78.78
2019-01-23T08:01:46.971Z,79.41
2019-01-23T08:02:46.960Z,79.20
2019-01-23T08:03:46.948Z,78.78
2019-01-23T08:04:46.938Z,79.10
2019-01-23T08:05:46.970Z,79.10
2019-01-23T08:06:46.921Z,79.10
2019-01-23T08:07:46.909Z,79.30
2019-01-23T08:08:46.896Z,79.30
2019-01-23T08:09:46.887Z,79.10
2019-01-23T08:10:46.899Z,79.52
2019-01-23T08:11:46.879Z,79.41
2019-01-23T08:12:46.858Z,79.10
2019-01-23T08:13:46.900Z,79.20
2019-01-23T08:14:46.838Z,79.20
2019-01-23T08:15:46.840Z,79.13
2019-01-23T08:16:46.812Z,79.34
2019-01-23T08:17:46.835Z,79.34
2019-01-23T08:18:46.793Z,79.13
2019-01-23T08:19:46.784Z,79.34
2019-01-23T08:20:46.789Z,79.52
2019-01-23T08:21:46.762Z,79.86
2019-01-23T08:22:46.754Z,79.72
2019-01-23T08:23:46.757Z,79.34
2019-01-23T08:24:46.730Z,79.52
2019-01-23T08:25:46.738Z,79.66
2019-01-23T08:26:46.711Z,79.76
2019-01-23T08:27:46.702Z,79.52
2019-01-23T08:28:54.225Z,79.03
2019-01-23T08:29:54.217Z,79.13
2019-01-23T08:30:57.407Z,79.41
2019-01-23T08:31:54.197Z,79.62
2019-01-23T08:32:54.186Z,79.52
2019-01-23T08:33:54.174Z,79.30
2019-01-23T08:34:56.466Z,79.34
2019-01-23T08:35:46.632Z,79.30
2019-01-23T08:36:46.602Z,78.92
2019-01-23T08:37:46.593Z,79.03
2019-01-23T08:38:46.583Z,78.89
2019-01-23T08:39:46.571Z,78.89
2019-01-23T08:40:46.581Z,78.89
2019-01-23T08:41:55.129Z,78.78
2019-01-23T08:42:46.540Z,78.78
2019-01-23T08:43:46.538Z,79.10
2019-01-23T08:44:46.523Z,79.20
2019-01-23T08:45:46.533Z,79.20
2019-01-23T08:46:46.527Z,79.30
2019-01-23T08:47:54.048Z,79.44
2019-01-23T08:48:54.043Z,78.57
2019-01-23T08:51:02.664Z,79.10
2019-01-23T08:52:02.650Z,78.99
2019-01-23T08:53:10.201Z,78.67
2019-01-23T08:54:11.185Z,79.10
2019-01-23T08:55:09.661Z,79.20
2019-01-23T08:56:11.503Z,79.30
2019-01-23T08:57:02.594Z,79.30
2019-01-23T08:58:02.575Z,78.89
2019-01-23T08:59:02.589Z,78.85
2019-01-23T09:00:02.552Z,79.30
2019-01-23T09:01:11.540Z,78.78
2019-01-23T09:02:02.530Z,78.78
2019-01-23T09:03:02.529Z,78.57
2019-01-23T09:04:02.516Z,78.85
2019-01-23T09:05:02.502Z,78.74
2019-01-23T09:06:02.524Z,78.74
2019-01-23T09:07:02.477Z,78.99
2019-01-23T09:08:02.472Z,78.25
2019-01-23T09:09:11.019Z,78.85
2019-01-23T09:10:02.447Z,78.67
2019-01-23T09:11:02.457Z,78.53
2019-01-23T09:12:02.431Z,78.85
2019-01-23T09:13:02.415Z,78.74
2019-01-23T09:14:02.430Z,78.64
2019-01-23T09:15:02.412Z,78.96
2019-01-23T09:16:02.409Z,78.85
2019-01-23T09:17:02.376Z,78.33
2019-01-23T09:18:02.393Z,78.43
2019-01-23T09:19:02.397Z,78.85
2019-01-23T09:20:02.362Z,77.38
2019-01-23T09:21:02.335Z,78.22
2019-01-23T09:22:02.348Z,78.22
2019-01-23T09:23:02.338Z,78.96
2019-01-23T09:24:02.299Z,78.96
2019-01-23T09:25:02.293Z,78.22
2019-01-23T09:26:02.297Z,78.85
2019-01-23T09:27:02.296Z,78.43
2019-01-23T09:28:02.259Z,78.74
2019-01-23T09:29:02.253Z,78.85
2019-01-23T09:30:02.241Z,78.33
2019-01-23T09:31:02.252Z,78.74
2019-01-23T09:32:02.222Z,78.43
2019-01-23T09:33:02.249Z,78.74
2019-01-23T09:34:02.201Z,78.64
2019-01-23T09:35:02.183Z,78.60
2019-01-23T09:36:02.183Z,78.85
2019-01-23T09:37:02.169Z,78.96
2019-01-23T09:38:02.196Z,78.74
2019-01-23T09:39:02.208Z,78.64
2019-01-23T09:40:02.131Z,79.16
2019-01-23T09:41:02.136Z,79.34
2019-01-23T09:42:02.123Z,78.71
2019-01-23T09:43:02.158Z,79.23
2019-01-23T09:44:02.132Z,78.71
2019-01-23T09:45:02.103Z,78.60
2019-01-23T09:46:02.070Z,78.39
2019-01-23T09:47:02.068Z,78.39
2019-01-23T09:48:02.049Z,78.71
2019-01-23T09:49:02.046Z,78.71
2019-01-23T09:50:02.052Z,78.19
2019-01-23T09:51:02.018Z,78.67
2019-01-23T09:52:02.027Z,78.71
2019-01-23T09:53:01.996Z,77.20
2019-01-23T09:54:02.005Z,78.05
2019-01-23T09:55:01.999Z,76.82
2019-01-23T09:56:01.971Z,76.47
2019-01-23T09:57:01.958Z,76.57
2019-01-23T09:58:01.947Z,75.88
2019-01-23T09:59:02.664Z,76.37
2019-01-23T10:00:01.950Z,75.74
2019-01-23T10:01:01.924Z,75.32
2019-01-23T10:02:01.908Z,76.79
2019-01-23T10:03:01.891Z,76.47
2019-01-23T10:04:01.880Z,76.89
2019-01-23T10:05:01.913Z,75.32
2019-01-23T10:06:01.883Z,75.32
2019-01-23T10:07:01.848Z,75.74
2019-01-23T10:08:01.839Z,75.08
2019-01-23T10:09:01.837Z,75.49
2019-01-23T10:10:01.848Z,74.97
2019-01-23T10:11:01.861Z,75.49
2019-01-23T10:12:01.796Z,75.08
2019-01-23T10:13:01.802Z,74.69
2019-01-23T10:14:01.776Z,75.29
2019-01-23T10:15:01.792Z,75.32
2019-01-23T10:16:01.774Z,75.18
2019-01-23T10:17:01.745Z,74.34
2019-01-23T10:18:01.733Z,74.24
2019-01-23T10:19:01.719Z,74.17
2019-01-23T10:20:01.713Z,75.18
2019-01-23T10:21:01.718Z,74.13
2019-01-23T10:22:01.707Z,74.13
2019-01-23T10:23:01.675Z,73.54
2019-01-23T10:24:01.704Z,73.50
2019-01-23T10:25:01.677Z,73.93
2019-01-23T10:26:01.668Z,74.45
2019-01-23T10:27:01.640Z,74.24
2019-01-23T10:28:01.637Z,74.34
2019-01-23T10:29:01.622Z,73.93
2019-01-23T10:30:01.610Z,73.61
2019-01-23T10:31:06.561Z,73.50
2019-01-23T10:32:02.590Z,73.40
2019-01-23T10:33:01.583Z,73.19
2019-01-23T10:34:01.560Z,73.09
2019-01-23T10:35:01.561Z,73.19
2019-01-23T10:36:01.585Z,73.26
2019-01-23T10:37:01.540Z,72.46
2019-01-23T10:38:01.526Z,72.67
2019-01-23T10:39:01.511Z,72.11
2019-01-23T10:40:01.507Z,72.77
2019-01-23T10:41:01.491Z,72.67
2019-01-23T10:42:01.506Z,72.67
2019-01-23T10:43:01.473Z,73.09
2019-01-23T10:44:01.472Z,72.32
2019-01-23T10:45:01.457Z,72.42
2019-01-23T10:46:01.435Z,72.64
2019-01-23T10:47:01.473Z,71.69
2019-01-23T10:48:01.438Z,71.31
2019-01-23T10:49:01.411Z,72.11
2019-01-23T10:50:01.431Z,71.48
2019-01-23T10:51:01.389Z,71.48
2019-01-23T10:52:01.386Z,71.69
2019-01-23T10:53:01.381Z,71.06
2019-01-23T10:54:01.372Z,71.17
2019-01-23T10:55:01.350Z,70.75
2019-01-23T10:56:01.369Z,71.48
2019-01-23T10:57:01.320Z,71.80
2019-01-23T10:58:01.325Z,70.86
2019-01-23T10:59:01.339Z,70.86
2019-01-23T11:00:01.291Z,70.23
2019-01-23T11:01:01.308Z,70.23
2019-01-23T11:02:01.276Z,70.54
2019-01-23T11:03:01.256Z,70.43
2019-01-23T11:04:01.266Z,70.12
2019-01-23T11:05:01.237Z,70.40
2019-01-23T11:06:01.223Z,70.51
2019-01-23T11:07:01.213Z,70.72
2019-01-23T11:08:01.209Z,70.20
2019-01-23T11:09:01.210Z,70.20
2019-01-23T11:10:01.205Z,70.09
2019-01-23T11:11:01.170Z,70.09
2019-01-23T11:12:01.288Z,70.20
2019-01-23T11:13:01.160Z,70.09
2019-01-23T11:14:01.165Z,70.20
2019-01-23T11:15:01.134Z,69.15
2019-01-23T11:16:01.129Z,68.84
2019-01-23T11:17:01.124Z,69.18
2019-01-23T11:18:01.101Z,69.07
2019-01-23T11:19:01.152Z,70.40
2019-01-23T11:20:01.121Z,70.40
2019-01-23T11:21:01.210Z,69.99
2019-01-23T11:22:01.067Z,69.99
2019-01-23T11:23:01.054Z,70.40
2019-01-23T11:24:01.051Z,69.36
2019-01-23T11:25:01.030Z,70.20
2019-01-23T11:26:01.046Z,69.36
2019-01-23T11:27:01.005Z,69.26
2019-01-23T11:28:00.996Z,68.84
2019-01-23T11:29:01.060Z,69.88
2019-01-23T11:30:00.980Z,70.30
2019-01-23T11:31:00.987Z,69.04
2019-01-23T11:32:00.955Z,68.84
2019-01-23T11:33:00.941Z,69.04
2019-01-23T11:34:00.941Z,69.04
2019-01-23T11:35:00.946Z,69.46
2019-01-23T11:36:00.906Z,69.46
2019-01-23T11:37:00.906Z,68.70
2019-01-23T11:38:00.924Z,68.91
2019-01-23T11:39:00.876Z,69.12
2019-01-23T11:40:00.866Z,68.60
2019-01-23T11:41:00.875Z,69.09
2019-01-23T11:42:00.855Z,68.98
2019-01-23T11:43:00.880Z,67.41
2019-01-23T11:44:00.846Z,67.83
2019-01-23T11:45:00.811Z,68.15
2019-01-23T11:46:00.820Z,67.73
2019-01-23T11:47:00.797Z,68.04
2019-01-23T11:48:00.788Z,69.19
2019-01-23T11:49:00.770Z,68.67
2019-01-23T11:50:00.764Z,68.98
2019-01-23T11:51:00.772Z,68.25
2019-01-23T11:52:01.130Z,68.67
2019-01-23T11:53:00.755Z,67.73
2019-01-23T11:54:00.723Z,67.62
2019-01-23T11:55:00.736Z,67.00
2019-01-23T11:56:00.738Z,67.83
2019-01-23T11:57:00.691Z,67.41
2019-01-23T11:58:00.678Z,67.00
2019-01-23T11:59:00.674Z,67.83
2019-01-23T12:00:00.662Z,68.15
2019-01-23T12:01:00.668Z,68.88
2019-01-23T12:02:00.662Z,69.19
2019-01-23T12:03:00.629Z,68.98
2019-01-23T12:04:00.615Z,68.43
2019-01-23T12:05:00.608Z,68.67
2019-01-23T12:06:00.612Z,68.98
2019-01-23T12:07:00.585Z,69.37
2019-01-23T12:08:00.570Z,68.01
2019-01-23T12:09:00.564Z,68.01
2019-01-23T12:10:00.575Z,67.62
2019-01-23T12:11:00.631Z,68.22
2019-01-23T12:12:00.563Z,67.62
2019-01-23T12:13:00.520Z,66.78
2019-01-23T12:14:00.566Z,67.73
2019-01-23T12:15:00.498Z,67.83
2019-01-23T12:16:00.488Z,67.21
2019-01-23T12:17:00.484Z,68.25
2019-01-23T12:18:00.488Z,68.15
2019-01-23T12:19:00.458Z,68.46
2019-01-23T12:20:00.445Z,68.04
2019-01-23T12:21:00.441Z,68.77
2019-01-23T12:22:00.430Z,69.09
2019-01-23T12:23:00.470Z,68.04
2019-01-23T12:24:00.400Z,68.15
2019-01-23T12:25:00.428Z,69.09
2019-01-23T12:26:00.387Z,68.15
2019-01-23T12:27:00.377Z,67.31
2019-01-23T12:28:00.374Z,67.73
2019-01-23T12:29:00.375Z,68.25
2019-01-23T12:30:00.368Z,67.52
2019-01-23T12:31:00.330Z,67.83
2019-01-23T12:32:00.324Z,67.73
2019-01-23T12:33:00.345Z,67.62
2019-01-23T12:34:00.318Z,67.41
2019-01-23T12:35:00.519Z,67.94
2019-01-23T12:36:00.282Z,67.73
2019-01-23T12:37:00.349Z,68.15
2019-01-23T12:38:00.279Z,66.97
2019-01-23T12:39:00.270Z,67.59
2019-01-23T12:40:00.243Z,67.52
2019-01-23T12:41:00.246Z,67.49
2019-01-23T12:42:00.211Z,68.01
2019-01-23T12:43:00.209Z,67.69
2019-01-23T12:44:00.216Z,67.38
2019-01-23T12:45:00.248Z,67.07
2019-01-23T12:46:00.176Z,67.21
2019-01-23T12:47:00.162Z,67.83
2019-01-23T12:48:00.232Z,68.04
2019-01-23T12:49:00.160Z,67.69
2019-01-23T12:50:00.178Z,67.62
2019-01-23T12:51:00.120Z,67.49
2019-01-23T12:52:00.115Z,67.83
2019-01-23T12:53:00.258Z,68.04
2019-01-23T12:54:00.086Z,68.32
2019-01-23T12:55:00.248Z,66.97
2019-01-23T12:56:00.085Z,67.38
2019-01-23T12:57:00.054Z,66.65
2019-01-23T12:58:00.045Z,66.97
2019-01-23T12:59:00.036Z,66.94
2019-01-23T13:00:05.111Z,67.69
2019-01-23T13:01:01.050Z,67.04
2019-01-23T13:02:00.030Z,67.35